CYYB

North Bay Airport

North Bay, , Canada
METAR CYYB 152000Z 23010G19KT 20SM FEW060TCU BKN280 31/15 A2997 RMK TCU1CI6 SLP145 DENSITY ALT 3300FT
Observed Flight Rules
Jul-15 @ 20:00 UTC (52 minutes ago) Visual Flight Rules
Wind Visibility Clouds
230° at 10 knots
 Gusting to 19 knots
20 miles
  • Few at 6,000' AGL
  • Broken at 28,000' AGL
Temperatures Readings
Current 31°C / 88°F
Dewpoint 15°C / 59°F
Humidity 38%
Altimeter 29.97" Hg
Pressure 1014.5 hPa
Elevation 371
METAR CYYB 152000Z 23010G19KT 20SM FEW060TCU BKN280 31/15 A2997 RMK TCU1CI6 SLP145 DENSITY ALT 3300FT
Observed Flight Rules
Jul-15 @ 20:00 UTC
(52 minutes ago)
VFR
Wind Visibility
230° at 10 knots
 Gusting to 19 knots
20 miles
Clouds
  • Few at 6,000' AGL
  • Broken at 28,000' AGL
Temperature Dewpoint
31°C / 88°F 15°C / 59°F
Humidity Altimeter Pressure
38% 29.97" Hg 1014.5 hPa